Wednesday, September 19, 2018, 2:53 PM EDT
Back to Local

KDCA, Washington National Airport

Location: Arlington, VA, United States Lat: 38.85
Local Time: 2:53 PM EDT (18:53 GMT) Lon: -77.033
Time Zone: US/Eastern Elev: 16 ft

Show me the last for .
Show Decoded

2018-09-19 13:52 METAR KDCA 191752Z 36011KT 10SM SCT042 SCT250 30/20 A2994 RMK AO2 SLP137
                 T03000200 10300 20233 58002 =
2018-09-19 12:52 METAR KDCA 191652Z 36013KT 10SM SCT038 BKN250 29/21 A2994 RMK AO2 SLP140
                 T02940206 =
2018-09-19 11:52 METAR KDCA 191552Z 01009KT 10SM SCT036 SCT250 29/21 A2994 RMK AO2 SLP139
                 T02890206 =
2018-09-19 10:52 METAR KDCA 191452Z 01009KT 10SM FEW035 28/21 A2994 RMK AO2 SLP140 T02780206
                 51013 =
2018-09-19 09:52 METAR KDCA 191352Z 34010KT 10SM FEW250 27/21 A2994 RMK AO2 SLP140 T02670206 =
2018-09-19 08:52 METAR KDCA 191252Z 34011KT 10SM BKN250 24/20 A2993 RMK AO2 SLP134 T02440200 =
2018-09-19 07:52 METAR KDCA 191152Z 34009KT 10SM SCT250 23/19 A2991 RMK AO2 SLP127 70012
                 T02330194 10239 20222 53014 =
2018-09-19 06:52 METAR KDCA 191052Z 33007KT 10SM FEW250 23/19 A2989 RMK AO2 SLP120 T02280189 =
2018-09-19 05:52 METAR KDCA 190952Z 33008KT 10SM FEW250 23/19 A2988 RMK AO2 SLP117 T02280189 =
2018-09-19 04:52 METAR KDCA 190852Z 35006KT 10SM CLR 23/19 A2987 RMK AO2 SLP113 T02280189 53006 =
2018-09-19 03:52 METAR KDCA 190752Z 33007KT 10SM CLR 23/19 A2986 RMK AO2 SLP110 T02330189 =
2018-09-19 02:52 METAR KDCA 190652Z 34006KT 10SM CLR 23/19 A2985 RMK AO2 SLP108 T02280189 =
2018-09-19 01:52 METAR KDCA 190552Z 34007KT 10SM CLR 24/19 A2985 RMK AO2 SLP107 T02390189 10272
                 20228 55000 =
2018-09-19 00:52 METAR KDCA 190452Z 33010KT 10SM FEW250 24/19 A2984 RMK AO2 SLP105 T02390189
                 402890228 =
2018-09-18 23:52 METAR KDCA 190352Z 35005KT 10SM FEW250 23/19 A2984 RMK AO2 SLP104 T02330189 =
2018-09-18 22:52 METAR KDCA 190252Z 32010KT 10SM FEW250 25/19 A2985 RMK AO2 SLP107 T02500189
                 51011 =
2018-09-18 21:52 METAR KDCA 190152Z 33007KT 10SM FEW250 25/19 A2984 RMK AO2 SLP104 T02500189 =
2018-09-18 20:52 METAR KDCA 190052Z COR 34008KT 10SM FEW055 SCT250 26/19 A2983 RMK AO2 SLP102
                 T02560194 =
2018-09-18 19:52 METAR KDCA 182352Z 32008KT 10SM FEW042 FEW055 BKN250 27/20 A2982 RMK AO2 SLP096
                 T02720200 10283 20256 53013 =
2018-09-18 18:52 METAR KDCA 182252Z 35008KT 10SM FEW037 SCT042 SCT055 BKN250 27/20 A2980 RMK AO2
                 SLP092 T02720200 =
2018-09-18 17:52 METAR KDCA 182152Z 03003KT 10SM FEW032 BKN042 BKN055 BKN250 28/21 A2979 RMK AO2
                 SLP087 T02830211 =
2018-09-18 16:52 METAR KDCA 182052Z 36009KT 10SM FEW027 SCT060 BKN110 BKN250 27/20 A2978 RMK AO2
                 LTG DSNT S SLP084 T02720200 53003 =
2018-09-18 15:52 METAR KDCA 181952Z 35011KT 10SM SCT027 BKN032 BKN060 BKN250 27/21 A2977 RMK AO2
                 LTG DSNT ALQDS SLP080 T02720211 =

Support USWX by starting your Amazon purchase here.